sensor_id;sensor_type;location;lat;lon;timestamp;temperature;humidity
42489;DHT22;28118;52.388;9.452;2022-11-20T00:00:47;-3.20;99.90
42489;DHT22;28118;52.388;9.452;2022-11-20T00:03:13;-3.30;99.90
42489;DHT22;28118;52.388;9.452;2022-11-20T00:05:40;-3.30;99.90
42489;DHT22;28118;52.388;9.452;2022-11-20T00:08:07;-3.30;99.90
42489;DHT22;28118;52.388;9.452;2022-11-20T00:10:36;-3.20;99.90
42489;DHT22;28118;52.388;9.452;2022-11-20T00:13:03;-3.20;99.90
42489;DHT22;28118;52.388;9.452;2022-11-20T00:15:30;-3.30;99.90
42489;DHT22;28118;52.388;9.452;2022-11-20T00:17:57;-3.30;99.90
42489;DHT22;28118;52.388;9.452;2022-11-20T00:20:24;-3.20;99.90
42489;DHT22;28118;52.388;9.452;2022-11-20T00:22:50;-3.10;99.90
42489;DHT22;28118;52.388;9.452;2022-11-20T00:25:17;-3.10;99.90
42489;DHT22;28118;52.388;9.452;2022-11-20T00:27:44;-3.10;99.90
42489;DHT22;28118;52.388;9.452;2022-11-20T00:30:11;-3.30;99.90
42489;DHT22;28118;52.388;9.452;2022-11-20T00:32:40;-3.30;99.90
42489;DHT22;28118;52.388;9.452;2022-11-20T00:35:07;-3.30;99.90
42489;DHT22;28118;52.388;9.452;2022-11-20T00:37:34;-3.40;99.90
42489;DHT22;28118;52.388;9.452;2022-11-20T00:40:00;-3.40;99.90
42489;DHT22;28118;52.388;9.452;2022-11-20T00:42:27;-3.40;99.90
42489;DHT22;28118;52.388;9.452;2022-11-20T00:44:53;-3.40;99.90
42489;DHT22;28118;52.388;9.452;2022-11-20T00:47:20;-3.40;99.90
42489;DHT22;28118;52.388;9.452;2022-11-20T00:49:46;-3.30;99.90
42489;DHT22;28118;52.388;9.452;2022-11-20T00:52:13;-3.30;99.90
42489;DHT22;28118;52.388;9.452;2022-11-20T00:54:40;-3.30;99.90
42489;DHT22;28118;52.388;9.452;2022-11-20T00:57:06;-3.20;99.90
42489;DHT22;28118;52.388;9.452;2022-11-20T00:59:33;-3.30;99.90
42489;DHT22;28118;52.388;9.452;2022-11-20T01:01:59;-3.30;99.90
42489;DHT22;28118;52.388;9.452;2022-11-20T01:04:26;-3.20;99.90
42489;DHT22;28118;52.388;9.452;2022-11-20T01:06:53;-3.20;99.90
42489;DHT22;28118;52.388;9.452;2022-11-20T01:09:19;-3.20;99.90
42489;DHT22;28118;52.388;9.452;2022-11-20T01:11:46;-3.20;99.90
42489;DHT22;28118;52.388;9.452;2022-11-20T01:14:15;-3.10;99.90
42489;DHT22;28118;52.388;9.452;2022-11-20T01:16:45;-3.10;99.90
42489;DHT22;28118;52.388;9.452;2022-11-20T01:19:15;-3.10;99.90
42489;DHT22;28118;52.388;9.452;2022-11-20T01:21:45;-3.10;99.90
42489;DHT22;28118;52.388;9.452;2022-11-20T01:24:13;-3.20;99.90
42489;DHT22;28118;52.388;9.452;2022-11-20T01:26:42;-3.10;99.90
42489;DHT22;28118;52.388;9.452;2022-11-20T01:29:23;-3.00;99.90
42489;DHT22;28118;52.388;9.452;2022-11-20T01:31:51;-2.90;99.90
42489;DHT22;28118;52.388;9.452;2022-11-20T01:34:20;-2.90;99.90
42489;DHT22;28118;52.388;9.452;2022-11-20T01:36:47;-3.10;99.90
42489;DHT22;28118;52.388;9.452;2022-11-20T01:39:19;-3.10;99.90
42489;DHT22;28118;52.388;9.452;2022-11-20T01:41:48;-3.10;99.90
42489;DHT22;28118;52.388;9.452;2022-11-20T01:50:09;-3.10;99.90
42489;DHT22;28118;52.388;9.452;2022-11-20T01:52:41;-3.10;99.90
42489;DHT22;28118;52.388;9.452;2022-11-20T01:55:21;-3.10;99.90
42489;DHT22;28118;52.388;9.452;2022-11-20T01:57:48;-3.10;99.90
42489;DHT22;28118;52.388;9.452;2022-11-20T02:00:17;-3.00;99.90
42489;DHT22;28118;52.388;9.452;2022-11-20T02:02:48;-3.00;99.90
42489;DHT22;28118;52.388;9.452;2022-11-20T02:05:22;-3.00;99.90
42489;DHT22;28118;52.388;9.452;2022-11-20T02:07:50;-3.00;99.90
42489;DHT22;28118;52.388;9.452;2022-11-20T02:10:17;-3.00;99.90
42489;DHT22;28118;52.388;9.452;2022-11-20T02:12:44;-2.80;99.90
42489;DHT22;28118;52.388;9.452;2022-11-20T02:15:29;-2.70;99.90
42489;DHT22;28118;52.388;9.452;2022-11-20T02:17:56;-2.70;99.90
42489;DHT22;28118;52.388;9.452;2022-11-20T02:20:22;-2.70;99.90
42489;DHT22;28118;52.388;9.452;2022-11-20T02:23:11;-2.60;99.90
42489;DHT22;28118;52.388;9.452;2022-11-20T02:25:38;-2.60;99.90
42489;DHT22;28118;52.388;9.452;2022-11-20T02:28:05;-2.70;99.90
42489;DHT22;28118;52.388;9.452;2022-11-20T02:30:32;-2.70;99.90
42489;DHT22;28118;52.388;9.452;2022-11-20T02:32:59;-2.70;99.90
42489;DHT22;28118;52.388;9.452;2022-11-20T02:37:54;-2.70;99.90
42489;DHT22;28118;52.388;9.452;2022-11-20T02:40:22;-2.70;99.90
42489;DHT22;28118;52.388;9.452;2022-11-20T02:42:52;-2.70;99.90
42489;DHT22;28118;52.388;9.452;2022-11-20T02:45:19;-2.80;99.90
42489;DHT22;28118;52.388;9.452;2022-11-20T02:47:45;-2.70;99.90
42489;DHT22;28118;52.388;9.452;2022-11-20T02:50:12;-2.60;99.90
42489;DHT22;28118;52.388;9.452;2022-11-20T02:52:38;-2.60;99.90
42489;DHT22;28118;52.388;9.452;2022-11-20T02:55:06;-2.70;99.90
42489;DHT22;28118;52.388;9.452;2022-11-20T02:57:32;-2.70;99.90
42489;DHT22;28118;52.388;9.452;2022-11-20T02:59:59;-2.80;99.90
42489;DHT22;28118;52.388;9.452;2022-11-20T03:02:30;-2.90;99.90
42489;DHT22;28118;52.388;9.452;2022-11-20T03:04:56;-2.80;99.90
42489;DHT22;28118;52.388;9.452;2022-11-20T03:07:23;-2.80;99.90
42489;DHT22;28118;52.388;9.452;2022-11-20T03:09:50;-2.80;99.90
42489;DHT22;28118;52.388;9.452;2022-11-20T03:12:17;-2.80;99.90
42489;DHT22;28118;52.388;9.452;2022-11-20T03:14:43;-2.70;99.90
42489;DHT22;28118;52.388;9.452;2022-11-20T03:17:15;-2.70;99.90
42489;DHT22;28118;52.388;9.452;2022-11-20T03:19:42;-2.70;99.90
42489;DHT22;28118;52.388;9.452;2022-11-20T03:22:09;-2.60;99.90
42489;DHT22;28118;52.388;9.452;2022-11-20T03:24:35;-2.70;99.90
42489;DHT22;28118;52.388;9.452;2022-11-20T03:27:02;-2.80;99.90
42489;DHT22;28118;52.388;9.452;2022-11-20T03:29:28;-2.60;99.90
42489;DHT22;28118;52.388;9.452;2022-11-20T03:31:55;-2.50;99.90
42489;DHT22;28118;52.388;9.452;2022-11-20T03:34:22;-2.50;99.90
42489;DHT22;28118;52.388;9.452;2022-11-20T03:36:49;-2.40;99.90
42489;DHT22;28118;52.388;9.452;2022-11-20T03:39:16;-2.40;99.90
42489;DHT22;28118;52.388;9.452;2022-11-20T03:41:42;-2.30;99.90
42489;DHT22;28118;52.388;9.452;2022-11-20T03:44:11;-2.20;99.90
42489;DHT22;28118;52.388;9.452;2022-11-20T03:46:38;-2.10;99.90
42489;DHT22;28118;52.388;9.452;2022-11-20T03:49:05;-2.10;99.90
42489;DHT22;28118;52.388;9.452;2022-11-20T03:51:34;-2.10;99.90
42489;DHT22;28118;52.388;9.452;2022-11-20T03:54:03;-2.10;99.90
42489;DHT22;28118;52.388;9.452;2022-11-20T03:56:31;-2.10;99.90
42489;DHT22;28118;52.388;9.452;2022-11-20T03:58:58;-2.00;99.90
42489;DHT22;28118;52.388;9.452;2022-11-20T04:01:27;-1.90;99.90
42489;DHT22;28118;52.388;9.452;2022-11-20T04:03:56;-1.90;99.90
42489;DHT22;28118;52.388;9.452;2022-11-20T04:06:26;-1.90;99.90
42489;DHT22;28118;52.388;9.452;2022-11-20T04:08:57;-1.90;99.90
42489;DHT22;28118;52.388;9.452;2022-11-20T04:11:28;-1.90;99.90
42489;DHT22;28118;52.388;9.452;2022-11-20T04:14:01;-1.80;99.90
42489;DHT22;28118;52.388;9.452;2022-11-20T04:16:33;-1.70;99.90
42489;DHT22;28118;52.388;9.452;2022-11-20T04:19:02;-1.90;99.90
42489;DHT22;28118;52.388;9.452;2022-11-20T04:21:29;-1.80;99.90
42489;DHT22;28118;52.388;9.452;2022-11-20T04:23:56;-1.70;99.90
42489;DHT22;28118;52.388;9.452;2022-11-20T04:26:25;-1.80;99.90
42489;DHT22;28118;52.388;9.452;2022-11-20T04:28:52;-1.80;99.90
42489;DHT22;28118;52.388;9.452;2022-11-20T04:31:28;-1.80;99.90
42489;DHT22;28118;52.388;9.452;2022-11-20T04:33:58;-1.90;99.90
42489;DHT22;28118;52.388;9.452;2022-11-20T04:36:28;-1.80;99.90
42489;DHT22;28118;52.388;9.452;2022-11-20T04:38:59;-1.70;99.90
42489;DHT22;28118;52.388;9.452;2022-11-20T04:41:31;-1.70;99.90
42489;DHT22;28118;52.388;9.452;2022-11-20T04:44:00;-1.70;99.90
42489;DHT22;28118;52.388;9.452;2022-11-20T04:46:34;-1.60;99.90
42489;DHT22;28118;52.388;9.452;2022-11-20T04:49:01;-1.60;99.90
42489;DHT22;28118;52.388;9.452;2022-11-20T04:51:28;-1.80;99.90
42489;DHT22;28118;52.388;9.452;2022-11-20T04:53:55;-1.80;99.90
42489;DHT22;28118;52.388;9.452;2022-11-20T04:56:22;-1.80;99.90
42489;DHT22;28118;52.388;9.452;2022-11-20T04:58:49;-2.00;99.90
42489;DHT22;28118;52.388;9.452;2022-11-20T05:01:18;-2.20;99.90
42489;DHT22;28118;52.388;9.452;2022-11-20T05:03:46;-2.10;99.90
42489;DHT22;28118;52.388;9.452;2022-11-20T05:06:17;-2.00;99.90
42489;DHT22;28118;52.388;9.452;2022-11-20T05:08:43;-2.00;99.90
42489;DHT22;28118;52.388;9.452;2022-11-20T05:11:12;-2.00;99.90
42489;DHT22;28118;52.388;9.452;2022-11-20T05:13:40;-2.00;99.90
42489;DHT22;28118;52.388;9.452;2022-11-20T05:16:10;-1.90;99.90
42489;DHT22;28118;52.388;9.452;2022-11-20T05:18:37;-1.90;99.90
42489;DHT22;28118;52.388;9.452;2022-11-20T05:21:05;-1.90;99.90
42489;DHT22;28118;52.388;9.452;2022-11-20T05:23:32;-1.90;99.90
42489;DHT22;28118;52.388;9.452;2022-11-20T05:25:59;-1.80;99.90
42489;DHT22;28118;52.388;9.452;2022-11-20T05:28:27;-1.80;99.90
42489;DHT22;28118;52.388;9.452;2022-11-20T05:30:55;-1.90;99.90
42489;DHT22;28118;52.388;9.452;2022-11-20T05:33:21;-1.80;99.90
42489;DHT22;28118;52.388;9.452;2022-11-20T05:35:48;-1.80;99.90
42489;DHT22;28118;52.388;9.452;2022-11-20T05:38:15;-1.70;99.90
42489;DHT22;28118;52.388;9.452;2022-11-20T05:40:42;-1.80;99.90
42489;DHT22;28118;52.388;9.452;2022-11-20T05:43:09;-1.90;99.90
42489;DHT22;28118;52.388;9.452;2022-11-20T05:45:36;-1.80;99.90
42489;DHT22;28118;52.388;9.452;2022-11-20T05:48:02;-1.80;99.90
42489;DHT22;28118;52.388;9.452;2022-11-20T05:50:29;-1.70;99.90
42489;DHT22;28118;52.388;9.452;2022-11-20T05:53:00;-1.70;99.90
42489;DHT22;28118;52.388;9.452;2022-11-20T05:55:27;-1.70;99.90
42489;DHT22;28118;52.388;9.452;2022-11-20T05:57:54;-1.60;99.90
42489;DHT22;28118;52.388;9.452;2022-11-20T06:00:21;-1.70;99.90
42489;DHT22;28118;52.388;9.452;2022-11-20T06:02:48;-1.70;99.90
42489;DHT22;28118;52.388;9.452;2022-11-20T06:05:15;-1.70;99.90
42489;DHT22;28118;52.388;9.452;2022-11-20T06:07:42;-1.60;99.90
42489;DHT22;28118;52.388;9.452;2022-11-20T06:10:09;-1.60;99.90
42489;DHT22;28118;52.388;9.452;2022-11-20T06:12:36;-1.60;99.90
42489;DHT22;28118;52.388;9.452;2022-11-20T06:15:04;-1.60;99.90
42489;DHT22;28118;52.388;9.452;2022-11-20T06:17:31;-1.50;99.90
42489;DHT22;28118;52.388;9.452;2022-11-20T06:19:57;-1.30;99.90
42489;DHT22;28118;52.388;9.452;2022-11-20T06:22:24;-1.20;99.90
42489;DHT22;28118;52.388;9.452;2022-11-20T06:24:50;-1.20;99.90
42489;DHT22;28118;52.388;9.452;2022-11-20T06:27:17;-1.10;99.90
42489;DHT22;28118;52.388;9.452;2022-11-20T06:29:44;-1.10;99.90
42489;DHT22;28118;52.388;9.452;2022-11-20T06:32:10;-1.10;99.90
42489;DHT22;28118;52.388;9.452;2022-11-20T06:34:37;-1.20;99.90
42489;DHT22;28118;52.388;9.452;2022-11-20T06:37:03;-1.30;99.90
42489;DHT22;28118;52.388;9.452;2022-11-20T06:39:30;-1.20;99.90
42489;DHT22;28118;52.388;9.452;2022-11-20T06:41:57;-1.10;99.90
42489;DHT22;28118;52.388;9.452;2022-11-20T06:44:25;-1.10;99.90
42489;DHT22;28118;52.388;9.452;2022-11-20T06:46:51;-1.00;99.90
42489;DHT22;28118;52.388;9.452;2022-11-20T06:49:18;-0.90;99.90
42489;DHT22;28118;52.388;9.452;2022-11-20T06:51:45;-0.90;99.90
42489;DHT22;28118;52.388;9.452;2022-11-20T06:54:12;-0.90;99.90
42489;DHT22;28118;52.388;9.452;2022-11-20T06:56:38;-0.70;99.90
42489;DHT22;28118;52.388;9.452;2022-11-20T06:59:06;-0.70;99.90
42489;DHT22;28118;52.388;9.452;2022-11-20T07:01:34;-0.70;99.90
42489;DHT22;28118;52.388;9.452;2022-11-20T07:04:01;-0.80;99.90
42489;DHT22;28118;52.388;9.452;2022-11-20T07:06:29;-0.70;99.90
42489;DHT22;28118;52.388;9.452;2022-11-20T07:08:56;-0.90;99.90
42489;DHT22;28118;52.388;9.452;2022-11-20T07:11:23;-0.90;99.90
42489;DHT22;28118;52.388;9.452;2022-11-20T07:13:50;-1.00;99.90
42489;DHT22;28118;52.388;9.452;2022-11-20T07:16:16;-0.90;99.90
42489;DHT22;28118;52.388;9.452;2022-11-20T07:18:43;-0.90;99.90
42489;DHT22;28118;52.388;9.452;2022-11-20T07:21:16;-1.00;99.90
42489;DHT22;28118;52.388;9.452;2022-11-20T07:23:42;-1.00;99.90
42489;DHT22;28118;52.388;9.452;2022-11-20T07:26:10;-1.00;99.90
42489;DHT22;28118;52.388;9.452;2022-11-20T07:28:37;-1.10;99.90
42489;DHT22;28118;52.388;9.452;2022-11-20T07:31:04;-1.00;99.90
42489;DHT22;28118;52.388;9.452;2022-11-20T07:33:33;-1.00;99.90
42489;DHT22;28118;52.388;9.452;2022-11-20T07:35:59;-1.00;99.90
42489;DHT22;28118;52.388;9.452;2022-11-20T07:38:26;-1.00;99.90
42489;DHT22;28118;52.388;9.452;2022-11-20T07:40:54;-0.90;99.90
42489;DHT22;28118;52.388;9.452;2022-11-20T07:43:22;-1.00;99.90
42489;DHT22;28118;52.388;9.452;2022-11-20T07:45:48;-0.90;99.90
42489;DHT22;28118;52.388;9.452;2022-11-20T07:48:15;-1.00;99.90
42489;DHT22;28118;52.388;9.452;2022-11-20T07:50:41;-1.00;99.90
42489;DHT22;28118;52.388;9.452;2022-11-20T07:53:08;-1.10;99.90
42489;DHT22;28118;52.388;9.452;2022-11-20T07:55:34;-1.00;99.90
42489;DHT22;28118;52.388;9.452;2022-11-20T07:58:01;-0.90;99.90
42489;DHT22;28118;52.388;9.452;2022-11-20T08:00:28;-1.00;99.90
42489;DHT22;28118;52.388;9.452;2022-11-20T08:02:54;-1.00;99.90
42489;DHT22;28118;52.388;9.452;2022-11-20T08:05:21;-0.90;99.90
42489;DHT22;28118;52.388;9.452;2022-11-20T08:07:48;-0.80;99.90
42489;DHT22;28118;52.388;9.452;2022-11-20T08:10:15;-0.70;99.90
42489;DHT22;28118;52.388;9.452;2022-11-20T08:12:50;-0.60;99.90
42489;DHT22;28118;52.388;9.452;2022-11-20T08:15:37;-0.60;99.90
42489;DHT22;28118;52.388;9.452;2022-11-20T08:18:08;-0.70;99.90
42489;DHT22;28118;52.388;9.452;2022-11-20T08:20:55;-0.70;99.90
42489;DHT22;28118;52.388;9.452;2022-11-20T08:23:22;-0.70;99.90
42489;DHT22;28118;52.388;9.452;2022-11-20T08:25:49;-0.50;99.90
42489;DHT22;28118;52.388;9.452;2022-11-20T08:28:17;-0.40;99.90
42489;DHT22;28118;52.388;9.452;2022-11-20T08:30:48;-0.40;99.90
42489;DHT22;28118;52.388;9.452;2022-11-20T08:33:16;-0.30;99.90
42489;DHT22;28118;52.388;9.452;2022-11-20T08:35:43;-0.40;99.90
42489;DHT22;28118;52.388;9.452;2022-11-20T08:38:10;-0.40;99.90
42489;DHT22;28118;52.388;9.452;2022-11-20T08:40:36;-0.20;99.90
42489;DHT22;28118;52.388;9.452;2022-11-20T08:43:03;-0.40;99.90
42489;DHT22;28118;52.388;9.452;2022-11-20T08:45:30;-0.30;99.90
42489;DHT22;28118;52.388;9.452;2022-11-20T08:48:01;-0.20;99.90
42489;DHT22;28118;52.388;9.452;2022-11-20T08:50:29;-0.10;99.90
42489;DHT22;28118;52.388;9.452;2022-11-20T08:53:04;-0.40;99.90
42489;DHT22;28118;52.388;9.452;2022-11-20T08:55:31;-0.30;99.90
42489;DHT22;28118;52.388;9.452;2022-11-20T08:57:58;-0.10;99.90
42489;DHT22;28118;52.388;9.452;2022-11-20T09:00:24;0.00;99.90
42489;DHT22;28118;52.388;9.452;2022-11-20T09:02:51;-0.20;99.90
42489;DHT22;28118;52.388;9.452;2022-11-20T09:05:18;-0.20;99.90
42489;DHT22;28118;52.388;9.452;2022-11-20T09:07:45;-0.10;99.90
42489;DHT22;28118;52.388;9.452;2022-11-20T09:10:12;0.20;99.90
42489;DHT22;28118;52.388;9.452;2022-11-20T09:12:54;0.20;99.90
42489;DHT22;28118;52.388;9.452;2022-11-20T09:15:25;0.00;99.90
42489;DHT22;28118;52.388;9.452;2022-11-20T09:17:52;0.10;99.90
42489;DHT22;28118;52.388;9.452;2022-11-20T09:20:19;0.30;99.90
42489;DHT22;28118;52.388;9.452;2022-11-20T09:22:46;0.50;99.90
42489;DHT22;28118;52.388;9.452;2022-11-20T09:25:13;0.60;99.90
42489;DHT22;28118;52.388;9.452;2022-11-20T09:27:39;0.60;99.90
42489;DHT22;28118;52.388;9.452;2022-11-20T09:30:11;0.70;99.90
42489;DHT22;28118;52.388;9.452;2022-11-20T09:32:41;0.80;99.90
42489;DHT22;28118;52.388;9.452;2022-11-20T09:35:09;1.00;99.90
42489;DHT22;28118;52.388;9.452;2022-11-20T09:37:35;0.90;99.90
42489;DHT22;28118;52.388;9.452;2022-11-20T09:40:04;0.90;99.90
42489;DHT22;28118;52.388;9.452;2022-11-20T09:50:32;0.80;99.90
42489;DHT22;28118;52.388;9.452;2022-11-20T09:55:45;0.80;99.90
42489;DHT22;28118;52.388;9.452;2022-11-20T10:00:53;0.60;99.90
42489;DHT22;28118;52.388;9.452;2022-11-20T10:06:44;0.70;99.90
42489;DHT22;28118;52.388;9.452;2022-11-20T10:09:39;0.60;99.90
42489;DHT22;28118;52.388;9.452;2022-11-20T10:12:39;0.50;99.90
42489;DHT22;28118;52.388;9.452;2022-11-20T10:16:09;0.40;99.90
42489;DHT22;28118;52.388;9.452;2022-11-20T10:21:17;0.80;99.90
42489;DHT22;28118;52.388;9.452;2022-11-20T10:26:40;0.70;99.90
42489;DHT22;28118;52.388;9.452;2022-11-20T10:29:14;0.60;99.90
42489;DHT22;28118;52.388;9.452;2022-11-20T10:31:56;0.60;99.90
42489;DHT22;28118;52.388;9.452;2022-11-20T10:34:27;0.70;99.90
42489;DHT22;28118;52.388;9.452;2022-11-20T10:37:10;0.70;99.90
42489;DHT22;28118;52.388;9.452;2022-11-20T10:40:17;0.80;99.90
42489;DHT22;28118;52.388;9.452;2022-11-20T10:42:48;0.80;99.90
42489;DHT22;28118;52.388;9.452;2022-11-20T10:47:52;0.90;99.90
42489;DHT22;28118;52.388;9.452;2022-11-20T10:50:22;1.00;99.90
42489;DHT22;28118;52.388;9.452;2022-11-20T10:55:29;0.70;99.90
42489;DHT22;28118;52.388;9.452;2022-11-20T10:58:10;0.70;99.90
42489;DHT22;28118;52.388;9.452;2022-11-20T11:00:37;0.80;99.90
42489;DHT22;28118;52.388;9.452;2022-11-20T11:03:25;0.90;99.90
42489;DHT22;28118;52.388;9.452;2022-11-20T11:06:08;0.80;99.90
42489;DHT22;28118;52.388;9.452;2022-11-20T11:08:40;0.90;99.90
42489;DHT22;28118;52.388;9.452;2022-11-20T11:11:22;1.10;99.90
42489;DHT22;28118;52.388;9.452;2022-11-20T11:13:50;0.90;99.90
42489;DHT22;28118;52.388;9.452;2022-11-20T11:16:25;1.00;99.90
42489;DHT22;28118;52.388;9.452;2022-11-20T11:19:04;1.10;99.90
42489;DHT22;28118;52.388;9.452;2022-11-20T11:21:30;1.00;99.90
42489;DHT22;28118;52.388;9.452;2022-11-20T11:24:03;1.00;99.90
42489;DHT22;28118;52.388;9.452;2022-11-20T11:27:02;1.00;99.90
42489;DHT22;28118;52.388;9.452;2022-11-20T11:29:31;0.90;99.90
42489;DHT22;28118;52.388;9.452;2022-11-20T11:32:11;1.20;99.90
42489;DHT22;28118;52.388;9.452;2022-11-20T11:34:38;1.30;99.90
42489;DHT22;28118;52.388;9.452;2022-11-20T11:37:10;1.30;99.90
42489;DHT22;28118;52.388;9.452;2022-11-20T11:39:41;1.50;99.90
42489;DHT22;28118;52.388;9.452;2022-11-20T11:42:12;1.70;99.90
42489;DHT22;28118;52.388;9.452;2022-11-20T11:44:44;1.70;99.90
42489;DHT22;28118;52.388;9.452;2022-11-20T11:47:43;1.70;99.90
42489;DHT22;28118;52.388;9.452;2022-11-20T11:50:22;1.70;99.90
42489;DHT22;28118;52.388;9.452;2022-11-20T11:53:16;1.90;99.90
42489;DHT22;28118;52.388;9.452;2022-11-20T11:55:59;2.10;99.90
42489;DHT22;28118;52.388;9.452;2022-11-20T11:58:43;2.50;99.90
42489;DHT22;28118;52.388;9.452;2022-11-20T12:01:47;2.40;99.90
42489;DHT22;28118;52.388;9.452;2022-11-20T12:06:50;1.90;99.90
42489;DHT22;28118;52.388;9.452;2022-11-20T12:09:18;1.90;99.90
42489;DHT22;28118;52.388;9.452;2022-11-20T12:11:52;1.70;99.90
42489;DHT22;28118;52.388;9.452;2022-11-20T12:14:28;1.70;99.90
42489;DHT22;28118;52.388;9.452;2022-11-20T12:16:57;1.90;99.90
42489;DHT22;28118;52.388;9.452;2022-11-20T12:19:24;1.80;99.90
42489;DHT22;28118;52.388;9.452;2022-11-20T12:22:06;1.90;99.90
42489;DHT22;28118;52.388;9.452;2022-11-20T12:27:53;2.00;99.90
42489;DHT22;28118;52.388;9.452;2022-11-20T12:30:21;2.50;99.90
42489;DHT22;28118;52.388;9.452;2022-11-20T12:33:16;2.80;99.90
42489;DHT22;28118;52.388;9.452;2022-11-20T12:36:00;3.20;99.90
42489;DHT22;28118;52.388;9.452;2022-11-20T12:44:36;3.60;99.90
42489;DHT22;28118;52.388;9.452;2022-11-20T12:56:43;3.50;99.90
42489;DHT22;28118;52.388;9.452;2022-11-20T12:59:53;3.10;99.90
42489;DHT22;28118;52.388;9.452;2022-11-20T13:08:03;2.70;99.90
42489;DHT22;28118;52.388;9.452;2022-11-20T13:10:51;2.70;99.90
42489;DHT22;28118;52.388;9.452;2022-11-20T13:13:51;2.90;99.90
42489;DHT22;28118;52.388;9.452;2022-11-20T13:19:03;3.00;99.90
42489;DHT22;28118;52.388;9.452;2022-11-20T13:21:38;3.00;99.90
42489;DHT22;28118;52.388;9.452;2022-11-20T13:24:29;3.20;99.90
42489;DHT22;28118;52.388;9.452;2022-11-20T13:29:43;3.10;99.90
42489;DHT22;28118;52.388;9.452;2022-11-20T13:32:14;3.20;99.90
42489;DHT22;28118;52.388;9.452;2022-11-20T13:35:02;3.20;99.90
42489;DHT22;28118;52.388;9.452;2022-11-20T13:37:35;3.20;99.90
42489;DHT22;28118;52.388;9.452;2022-11-20T13:42:40;2.90;99.90
42489;DHT22;28118;52.388;9.452;2022-11-20T13:45:26;2.90;99.90
42489;DHT22;28118;52.388;9.452;2022-11-20T13:47:54;2.90;99.90
42489;DHT22;28118;52.388;9.452;2022-11-20T13:50:45;2.80;99.90
42489;DHT22;28118;52.388;9.452;2022-11-20T14:02:00;2.60;99.90
42489;DHT22;28118;52.388;9.452;2022-11-20T14:04:31;2.50;99.90
42489;DHT22;28118;52.388;9.452;2022-11-20T14:06:59;2.40;99.90
42489;DHT22;28118;52.388;9.452;2022-11-20T14:09:32;2.50;99.90
42489;DHT22;28118;52.388;9.452;2022-11-20T14:12:02;2.40;99.90
42489;DHT22;28118;52.388;9.452;2022-11-20T14:14:30;2.50;99.90
42489;DHT22;28118;52.388;9.452;2022-11-20T14:17:21;2.50;99.90
42489;DHT22;28118;52.388;9.452;2022-11-20T14:19:51;2.50;99.90
42489;DHT22;28118;52.388;9.452;2022-11-20T14:24:49;2.70;99.90
42489;DHT22;28118;52.388;9.452;2022-11-20T14:27:26;2.70;99.90
42489;DHT22;28118;52.388;9.452;2022-11-20T14:29:53;2.70;99.90
42489;DHT22;28118;52.388;9.452;2022-11-20T14:32:21;2.70;99.90
42489;DHT22;28118;52.388;9.452;2022-11-20T14:35:01;2.70;99.90
42489;DHT22;28118;52.388;9.452;2022-11-20T14:37:33;2.70;99.90
42489;DHT22;28118;52.388;9.452;2022-11-20T14:40:00;2.70;99.90
42489;DHT22;28118;52.388;9.452;2022-11-20T14:42:28;2.60;99.90
42489;DHT22;28118;52.388;9.452;2022-11-20T14:45:00;2.40;99.90
42489;DHT22;28118;52.388;9.452;2022-11-20T14:47:29;2.30;99.90
42489;DHT22;28118;52.388;9.452;2022-11-20T14:49:57;2.10;99.90
42489;DHT22;28118;52.388;9.452;2022-11-20T14:52:26;2.00;99.90
42489;DHT22;28118;52.388;9.452;2022-11-20T14:54:57;1.90;99.90
42489;DHT22;28118;52.388;9.452;2022-11-20T14:57:27;1.90;99.90
42489;DHT22;28118;52.388;9.452;2022-11-20T15:02:47;1.80;99.90
42489;DHT22;28118;52.388;9.452;2022-11-20T15:05:16;1.70;99.90
42489;DHT22;28118;52.388;9.452;2022-11-20T15:07:46;1.60;99.90
42489;DHT22;28118;52.388;9.452;2022-11-20T15:10:25;1.50;99.90
42489;DHT22;28118;52.388;9.452;2022-11-20T15:18:19;1.30;99.90
42489;DHT22;28118;52.388;9.452;2022-11-20T15:20:47;1.20;99.90
42489;DHT22;28118;52.388;9.452;2022-11-20T15:23:18;1.10;99.90
42489;DHT22;28118;52.388;9.452;2022-11-20T15:25:46;1.10;99.90
42489;DHT22;28118;52.388;9.452;2022-11-20T15:28:35;1.00;99.90
42489;DHT22;28118;52.388;9.452;2022-11-20T15:31:03;0.90;99.90
42489;DHT22;28118;52.388;9.452;2022-11-20T15:33:31;0.90;99.90
42489;DHT22;28118;52.388;9.452;2022-11-20T15:35:58;0.80;99.90
42489;DHT22;28118;52.388;9.452;2022-11-20T15:38:25;0.70;99.90
42489;DHT22;28118;52.388;9.452;2022-11-20T15:40:52;0.60;99.90
42489;DHT22;28118;52.388;9.452;2022-11-20T15:43:18;0.50;99.90
42489;DHT22;28118;52.388;9.452;2022-11-20T15:46:03;0.40;99.90
42489;DHT22;28118;52.388;9.452;2022-11-20T15:48:37;0.30;99.90
42489;DHT22;28118;52.388;9.452;2022-11-20T15:51:29;0.30;99.90
42489;DHT22;28118;52.388;9.452;2022-11-20T15:53:57;0.20;99.90
42489;DHT22;28118;52.388;9.452;2022-11-20T15:56:24;0.10;99.90
42489;DHT22;28118;52.388;9.452;2022-11-20T15:58:50;0.00;99.90
42489;DHT22;28118;52.388;9.452;2022-11-20T16:01:19;0.00;99.90
42489;DHT22;28118;52.388;9.452;2022-11-20T16:03:47;0.00;99.90
42489;DHT22;28118;52.388;9.452;2022-11-20T16:06:14;-0.10;99.90
42489;DHT22;28118;52.388;9.452;2022-11-20T16:08:43;-0.10;99.90
42489;DHT22;28118;52.388;9.452;2022-11-20T16:11:13;-0.10;99.90
42489;DHT22;28118;52.388;9.452;2022-11-20T16:13:40;-0.10;99.90
42489;DHT22;28118;52.388;9.452;2022-11-20T16:16:34;-0.10;99.90
42489;DHT22;28118;52.388;9.452;2022-11-20T16:19:01;-0.10;99.90
42489;DHT22;28118;52.388;9.452;2022-11-20T16:21:28;0.00;99.90
42489;DHT22;28118;52.388;9.452;2022-11-20T16:24:02;0.00;99.90
42489;DHT22;28118;52.388;9.452;2022-11-20T16:26:29;0.00;99.90
42489;DHT22;28118;52.388;9.452;2022-11-20T16:28:58;0.10;99.90
42489;DHT22;28118;52.388;9.452;2022-11-20T16:31:25;0.10;99.90
42489;DHT22;28118;52.388;9.452;2022-11-20T16:33:53;0.20;99.90
42489;DHT22;28118;52.388;9.452;2022-11-20T16:36:22;0.20;99.90
42489;DHT22;28118;52.388;9.452;2022-11-20T16:38:53;0.30;99.90
42489;DHT22;28118;52.388;9.452;2022-11-20T16:41:20;0.30;99.90
42489;DHT22;28118;52.388;9.452;2022-11-20T16:43:52;0.30;99.90
42489;DHT22;28118;52.388;9.452;2022-11-20T16:46:21;0.30;99.90
42489;DHT22;28118;52.388;9.452;2022-11-20T16:49:02;0.30;99.90
42489;DHT22;28118;52.388;9.452;2022-11-20T16:51:31;0.30;99.90
42489;DHT22;28118;52.388;9.452;2022-11-20T16:54:07;0.30;99.90
42489;DHT22;28118;52.388;9.452;2022-11-20T16:56:34;0.30;99.90
42489;DHT22;28118;52.388;9.452;2022-11-20T16:59:01;0.20;99.90
42489;DHT22;28118;52.388;9.452;2022-11-20T17:01:29;0.20;99.90
42489;DHT22;28118;52.388;9.452;2022-11-20T17:04:01;0.20;99.90
42489;DHT22;28118;52.388;9.452;2022-11-20T17:06:33;0.20;99.90
42489;DHT22;28118;52.388;9.452;2022-11-20T17:09:00;0.20;99.90
42489;DHT22;28118;52.388;9.452;2022-11-20T17:11:27;0.30;99.90
42489;DHT22;28118;52.388;9.452;2022-11-20T17:13:55;0.20;99.90
42489;DHT22;28118;52.388;9.452;2022-11-20T17:16:23;0.20;99.90
42489;DHT22;28118;52.388;9.452;2022-11-20T17:18:56;0.20;99.90
42489;DHT22;28118;52.388;9.452;2022-11-20T17:21:29;0.20;99.90
42489;DHT22;28118;52.388;9.452;2022-11-20T17:23:58;0.20;99.90
42489;DHT22;28118;52.388;9.452;2022-11-20T17:26:25;0.20;99.90
42489;DHT22;28118;52.388;9.452;2022-11-20T17:28:55;0.20;99.90